Pagina principale
METAR-TAF:

METAR-TAF

Aeroporti :

Aeroporto di Cuneo-Levaldigi

Cuneo, Italia

latitudine: 44-32-47N, longitudine: 007-37-20E, altezza: 386 m

Osservazione

Il bollettino è stato emesso 32 minuti fa, alle 00:50 UTC
Vento 6 kt da sud/sud-ovest, variando fra sud/sud-est e sud-ovest
Temperature 11°C
Umidità 94%
Pressione 1004 hPa
Visibilità 10 km o più

METAR: LIMZ 160050Z AUTO 20006KT 150V220 9999 NCD 11/10 Q1004

Ora: 03:22 (01:22 UTC)

Previsione

Il bollettino è stato emesso 2 ore e 22 minuti fa, alle 23:00 UTC
Previsione valida dal 16 alle 00 UTC al 16 alle 24 UTC
Vento 5 kt da direzioni variabili
Visibilità 10 km o più
Poco nuvoloso ad un'altezza di 4000 ft
Evoluzione graduale
dal 16 alle 12 UTC al 16 alle 14 UTC
Vento 16 kt da nord/nord-ovest
Temporaneamente
dal 16 alle 14 UTC al 16 alle 18 UTC
Vento 18 kt da nord/nord-ovest con raffiche fino a 28 kt

TAF: LIMZ 152300Z 1600/1624 VRB05KT 9999 FEW040 BECMG 1612/1614 34016KT TEMPO 1614/1618 34018G28KT

Osservazioni e previsioni meteorologiche di più di 4000 aeroporti (messaggi METAR e TAF).

Le stazioni disponibili sono rappresentate dai dischi gialli e rossi sulla carta.

Puntare il mouse per vedere il nome della stazione.

Clicca sopra per visualizzare le osservazioni e previsioni meteorologiche.

Per cambiare la mappa : fare clic sui pulsanti verdi con una croce nera per ingrandire, il pulsante verde con un trattino per diminuire, o sulla freccia verde per le mappe adiacenti.


METAR-TAF: